Time;durP1;ratioP1;P1;durP2;ratioP2;P2;SDS_P1;SDS_P2;PMS_P1;PMS_P2;Temp;Humidity;BMP_temperature;BMP_pressure;BME280_temperature;BME280_humidity;BME280_pressure;Samples;Min_cycle;Max_cycle;Signal;HPM_P1;HPM_P2
2022/09/11 00:00:54;;;;;;;15.15;11.73;;;15.90;90.00;;;;;;5071807;28;20082;-42
2022/09/11 00:03:24;;;;;;;13.15;10.80;;;15.80;90.00;;;;;;5071871;28;20357;-38
2022/09/11 00:05:50;;;;;;;14.15;11.25;;;15.80;90.00;;;;;;5071709;28;20020;-35
2022/09/11 00:08:20;;;;;;;12.70;10.25;;;15.80;90.00;;;;;;5071516;28;20041;-39
2022/09/11 00:10:47;;;;;;;16.33;11.82;;;15.80;90.00;;;;;;5071848;28;20024;-42
2022/09/11 00:13:20;;;;;;;13.25;10.68;;;15.70;90.00;;;;;;5072518;28;20048;-40
2022/09/11 00:15:47;;;;;;;15.07;12.55;;;15.70;90.00;;;;;;5071921;28;20024;-42
2022/09/11 00:18:16;;;;;;;16.63;12.15;;;15.60;90.00;;;;;;5071501;28;20021;-37
2022/09/11 00:20:51;;;;;;;16.42;12.15;;;15.60;90.10;;;;;;5071875;28;20028;-41
2022/09/11 00:23:18;;;;;;;15.82;12.07;;;15.60;90.30;;;;;;5070172;28;20032;-41
2022/09/11 00:25:45;;;;;;;19.90;12.18;;;15.50;90.10;;;;;;5071814;28;20024;-40
2022/09/11 00:28:22;;;;;;;15.82;11.40;;;15.50;90.10;;;;;;5071355;28;20029;-38
2022/09/11 00:31:06;;;;;;;14.57;11.15;;;15.50;90.20;;;;;;5071561;28;20054;-38
2022/09/11 00:33:32;;;;;;;14.73;10.90;;;15.50;90.20;;;;;;5070117;28;20435;-40
2022/09/11 00:36:00;;;;;;;13.20;11.27;;;15.50;90.20;;;;;;5072884;28;20020;-41
2022/09/11 00:38:28;;;;;;;16.35;12.55;;;15.40;90.20;;;;;;5075001;28;20039;-39
2022/09/11 00:40:56;;;;;;;14.98;11.93;;;15.40;90.20;;;;;;5074979;28;20044;-40
2022/09/11 00:43:22;;;;;;;15.20;12.52;;;15.40;90.20;;;;;;5073729;28;20028;-42
2022/09/11 00:45:54;;;;;;;16.42;11.63;;;15.40;90.30;;;;;;5075206;28;20027;-40
2022/09/11 00:48:23;;;;;;;14.95;12.38;;;15.30;90.30;;;;;;5074781;28;20116;-42
2022/09/11 00:50:50;;;;;;;15.95;11.55;;;15.30;90.30;;;;;;5074700;28;20037;-42
2022/09/11 00:53:20;;;;;;;16.98;12.60;;;15.30;90.60;;;;;;5074800;28;20029;-39
2022/09/11 00:55:52;;;;;;;13.57;10.32;;;15.30;90.30;;;;;;5073384;28;20047;-39
2022/09/11 00:58:24;;;;;;;14.60;11.52;;;15.30;90.40;;;;;;5074970;28;20111;-38
2022/09/11 01:00:53;;;;;;;14.57;11.75;;;15.20;90.30;;;;;;5074557;28;20447;-39
2022/09/11 01:03:19;;;;;;;13.85;12.02;;;15.20;90.30;;;;;;5074780;28;20025;-40
2022/09/11 01:05:46;;;;;;;12.23;10.93;;;15.20;90.40;;;;;;5073320;28;20029;-41
2022/09/11 01:08:13;;;;;;;12.75;11.30;;;15.20;90.40;;;;;;5074543;28;20029;-41
2022/09/11 01:10:47;;;;;;;13.43;11.00;;;15.20;90.40;;;;;;5074337;28;20021;-38
2022/09/11 01:13:29;;;;;;;13.10;10.85;;;15.20;90.40;;;;;;5074544;28;20091;-39
2022/09/11 01:16:11;;;;;;;12.15;10.02;;;15.20;90.40;;;;;;5074565;28;20086;-41
2022/09/11 01:18:40;;;;;;;13.40;11.52;;;15.10;90.70;;;;;;5074131;28;20492;-41
2022/09/11 01:21:24;;;;;;;12.60;10.45;;;15.10;90.40;;;;;;5074464;28;20032;-41
2022/09/11 01:24:37;;;;;;;11.70;10.25;;;15.10;90.40;;;;;;5074080;28;20417;-42
2022/09/11 01:27:44;;;;;;;13.15;10.35;;;15.10;90.40;;;;;;5073282;28;20430;-41
2022/09/11 01:30:21;;;;;;;12.15;10.57;;;15.10;90.40;;;;;;5074434;28;20043;-40
2022/09/11 01:32:58;;;;;;;12.70;11.20;;;15.10;90.40;;;;;;5074111;28;20029;-40
2022/09/11 01:35:27;;;;;;;12.38;10.82;;;15.10;90.40;;;;;;5074259;28;20107;-42
2022/09/11 01:38:06;;;;;;;15.73;10.88;;;15.00;90.40;;;;;;5073865;28;20025;-40
2022/09/11 01:40:48;;;;;;;12.02;9.88;;;15.00;90.40;;;;;;5073856;28;20029;-41
2022/09/11 01:43:26;;;;;;;11.10;9.88;;;15.00;90.40;;;;;;5074008;28;20121;-40
2022/09/11 01:45:55;;;;;;;14.25;10.95;;;15.00;90.40;;;;;;5073561;28;20032;-41
2022/09/11 01:48:28;;;;;;;13.55;10.50;;;15.00;90.40;;;;;;5073103;28;20068;-41
2022/09/11 01:50:56;;;;;;;14.00;10.95;;;15.00;90.40;;;;;;5073549;28;20083;-38
2022/09/11 01:53:27;;;;;;;13.10;10.75;;;15.00;90.50;;;;;;5073822;28;20021;-38
2022/09/11 01:56:04;;;;;;;16.63;11.20;;;15.00;90.40;;;;;;5073909;28;20039;-41
2022/09/11 01:58:35;;;;;;;13.68;10.38;;;15.00;90.70;;;;;;5073619;28;20023;-39
2022/09/11 02:01:08;;;;;;;13.75;10.90;;;15.10;90.50;;;;;;5073362;28;20020;-41
2022/09/11 02:03:41;;;;;;;13.10;10.05;;;15.10;90.40;;;;;;5073455;28;20480;-39
2022/09/11 02:06:27;;;;;;;13.63;11.57;;;15.10;90.40;;;;;;5072305;28;20039;-40
2022/09/11 02:09:00;;;;;;;16.83;11.93;;;15.10;90.40;;;;;;5073261;28;20032;-37
2022/09/11 02:11:28;;;;;;;15.80;12.63;;;15.10;90.40;;;;;;5073199;28;20025;-38
2022/09/11 02:14:19;;;;;;;15.32;11.00;;;15.10;90.40;;;;;;5073496;28;20028;-38
2022/09/11 02:17:03;;;;;;;14.60;10.73;;;15.10;90.40;;;;;;5073032;28;20016;-37
2022/09/11 02:19:30;;;;;;;13.50;10.80;;;15.10;90.40;;;;;;5072962;28;20511;-40
2022/09/11 02:21:57;;;;;;;16.40;12.15;;;15.10;90.40;;;;;;5072222;28;20027;-38
2022/09/11 02:24:24;;;;;;;14.98;11.77;;;15.10;90.30;;;;;;5073309;28;20056;-39
2022/09/11 02:27:04;;;;;;;16.58;12.50;;;15.10;90.40;;;;;;5072965;28;20544;-40
2022/09/11 02:29:30;;;;;;;16.85;12.98;;;15.10;90.40;;;;;;5072766;28;20056;-38
2022/09/11 02:31:55;;;;;;;18.35;12.57;;;15.10;90.30;;;;;;5073084;28;20017;-40
2022/09/11 02:34:26;;;;;;;16.42;12.60;;;15.20;90.40;;;;;;5072888;28;20028;-38
2022/09/11 02:37:07;;;;;;;16.63;12.32;;;15.20;90.30;;;;;;5073090;28;20085;-41
2022/09/11 02:39:44;;;;;;;16.85;12.18;;;15.20;90.30;;;;;;5072736;28;20079;-38
2022/09/11 02:42:31;;;;;;;18.33;12.95;;;15.20;90.30;;;;;;5072846;28;20048;-38
2022/09/11 02:45:34;;;;;;;15.75;12.63;;;15.20;90.30;;;;;;5072923;28;20031;-38
2022/09/11 02:48:20;;;;;;;16.98;12.30;;;15.20;90.30;;;;;;5071780;28;20028;-41
2022/09/11 02:51:00;;;;;;;17.45;12.00;;;15.20;90.30;;;;;;5072593;28;20388;-39
2022/09/11 02:53:30;;;;;;;18.83;13.10;;;15.20;90.30;;;;;;5072749;28;20044;-40
2022/09/11 02:56:15;;;;;;;17.20;12.55;;;15.20;90.30;;;;;;5071224;28;20452;-42
2022/09/11 02:58:57;;;;;;;18.88;12.30;;;15.20;90.30;;;;;;5072620;28;20078;-38
2022/09/11 03:01:23;;;;;;;17.45;12.23;;;15.20;90.30;;;;;;5072718;28;20324;-36
2022/09/11 03:03:49;;;;;;;16.42;11.73;;;15.20;90.30;;;;;;5072264;28;20028;-40
2022/09/11 03:06:21;;;;;;;16.48;12.23;;;15.20;90.30;;;;;;5072325;28;20029;-38
2022/09/11 03:08:48;;;;;;;16.10;11.05;;;15.20;90.30;;;;;;5072527;28;20120;-39
2022/09/11 03:11:14;;;;;;;14.40;11.13;;;15.10;90.20;;;;;;5072692;28;20069;-40
2022/09/11 03:13:40;;;;;;;15.27;11.70;;;15.10;90.20;;;;;;5072336;28;20131;-40
2022/09/11 03:16:06;;;;;;;16.88;11.38;;;15.10;90.30;;;;;;5072722;28;20032;-36
2022/09/11 03:18:32;;;;;;;13.82;10.82;;;15.10;90.30;;;;;;5072835;28;20116;-40
2022/09/11 03:20:59;;;;;;;15.27;11.10;;;15.00;90.30;;;;;;5072255;28;20365;-39
2022/09/11 03:23:24;;;;;;;13.10;10.07;;;15.00;90.20;;;;;;5072028;28;20103;-41
2022/09/11 03:25:50;;;;;;;11.02;9.50;;;15.00;90.20;;;;;;5072210;28;20154;-40
2022/09/11 03:28:15;;;;;;;10.90;9.13;;;15.00;90.20;;;;;;5072391;28;20056;-40
2022/09/11 03:30:41;;;;;;;13.05;9.30;;;15.00;90.20;;;;;;5072167;28;20023;-39
2022/09/11 03:33:07;;;;;;;10.23;8.38;;;15.00;90.20;;;;;;5072466;28;20158;-38
2022/09/11 03:35:33;;;;;;;10.77;8.88;;;15.00;90.20;;;;;;5071868;28;20066;-42
2022/09/11 03:37:59;;;;;;;11.20;8.18;;;15.00;90.20;;;;;;5071914;28;20107;-37
2022/09/11 03:40:25;;;;;;;10.07;8.75;;;14.90;90.20;;;;;;5071966;28;20029;-39
2022/09/11 03:42:51;;;;;;;10.75;8.73;;;14.90;90.20;;;;;;5071927;28;20387;-38
2022/09/11 03:45:18;;;;;;;10.18;8.30;;;14.90;90.20;;;;;;5071653;28;20061;-36
2022/09/11 03:47:44;;;;;;;12.00;9.27;;;14.90;90.10;;;;;;5071933;28;20090;-37
2022/09/11 03:50:10;;;;;;;11.52;8.77;;;14.80;90.10;;;;;;5070471;28;20033;-39
2022/09/11 03:52:36;;;;;;;11.07;8.57;;;14.80;90.10;;;;;;5071834;28;20066;-38
2022/09/11 03:55:05;;;;;;;10.45;8.02;;;14.70;90.10;;;;;;5071969;28;20472;-37
2022/09/11 03:57:35;;;;;;;10.85;8.27;;;14.70;90.10;;;;;;5070246;28;20029;-37
2022/09/11 04:00:02;;;;;;;10.63;8.40;;;14.70;90.10;;;;;;5071739;28;20476;-38
2022/09/11 04:02:27;;;;;;;12.48;9.05;;;14.70;90.10;;;;;;5072008;28;20048;-37
2022/09/11 04:04:53;;;;;;;12.50;8.88;;;14.60;90.10;;;;;;5071888;28;20025;-40
2022/09/11 04:07:18;;;;;;;11.60;8.48;;;14.60;90.10;;;;;;5071976;28;20107;-39
2022/09/11 04:09:45;;;;;;;10.85;8.27;;;14.60;90.40;;;;;;5072066;28;20017;-37
2022/09/11 04:12:11;;;;;;;10.07;8.25;;;14.60;90.10;;;;;;5074732;28;20019;-39
2022/09/11 04:14:37;;;;;;;10.10;7.78;;;14.60;90.10;;;;;;5075398;28;20111;-36
2022/09/11 04:17:03;;;;;;;9.35;7.80;;;14.60;90.10;;;;;;5075760;28;20111;-41
2022/09/11 04:19:28;;;;;;;8.90;7.45;;;14.60;90.10;;;;;;5075619;28;20093;-35
2022/09/11 04:21:54;;;;;;;9.45;7.78;;;14.60;90.10;;;;;;5075356;28;20033;-41
2022/09/11 04:24:19;;;;;;;9.02;7.45;;;14.60;90.40;;;;;;5075444;28;20510;-38
2022/09/11 04:26:45;;;;;;;9.65;7.80;;;14.60;90.10;;;;;;5075740;28;20119;-34
2022/09/11 04:29:11;;;;;;;9.02;7.93;;;14.50;90.10;;;;;;5075532;28;20059;-40
2022/09/11 04:31:37;;;;;;;14.00;8.07;;;14.50;90.10;;;;;;5075173;28;20092;-38
2022/09/11 04:34:03;;;;;;;8.90;7.50;;;14.50;90.10;;;;;;5074993;28;20472;-37
2022/09/11 04:36:29;;;;;;;9.23;7.50;;;14.50;90.10;;;;;;5075591;28;20104;-39
2022/09/11 04:38:56;;;;;;;7.60;6.80;;;14.50;90.10;;;;;;5075212;28;20095;-38
2022/09/11 04:41:23;;;;;;;9.82;7.53;;;14.50;90.00;;;;;;5075067;28;20029;-37
2022/09/11 04:43:52;;;;;;;7.93;6.82;;;14.50;90.00;;;;;;5075086;28;20047;-39
2022/09/11 04:46:18;;;;;;;7.72;6.90;;;14.40;90.00;;;;;;5074879;28;20108;-39
2022/09/11 04:48:50;;;;;;;9.35;6.82;;;14.40;90.00;;;;;;5074738;28;20027;-39
2022/09/11 04:51:23;;;;;;;11.18;7.40;;;14.40;90.00;;;;;;5074708;28;20038;-38
2022/09/11 04:53:50;;;;;;;10.30;7.82;;;14.40;90.00;;;;;;5074689;28;20074;-36
2022/09/11 04:56:20;;;;;;;10.30;8.15;;;14.40;89.90;;;;;;5074734;28;20116;-37
2022/09/11 04:58:51;;;;;;;8.75;7.50;;;14.40;89.90;;;;;;5074900;28;20024;-38
2022/09/11 05:01:17;;;;;;;8.95;7.10;;;14.40;89.90;;;;;;5074524;28;20523;-38
2022/09/11 05:03:42;;;;;;;6.85;5.75;;;14.40;89.90;;;;;;5074756;28;20047;-37
2022/09/11 05:06:10;;;;;;;8.88;6.80;;;14.40;89.90;;;;;;5074599;28;20028;-37
2022/09/11 05:08:36;;;;;;;8.55;5.78;;;14.40;89.80;;;;;;5074386;28;20039;-39
2022/09/11 05:11:04;;;;;;;7.18;6.25;;;14.40;89.80;;;;;;5074572;28;20017;-37
2022/09/11 05:13:30;;;;;;;6.85;5.95;;;14.40;89.80;;;;;;5074413;28;20096;-36
2022/09/11 05:16:10;;;;;;;6.32;5.72;;;14.30;89.70;;;;;;5074431;28;20024;-41
2022/09/11 05:18:40;;;;;;;6.15;5.55;;;14.30;89.60;;;;;;5074312;28;20028;-38
2022/09/11 05:21:14;;;;;;;6.85;6.15;;;14.30;89.60;;;;;;5074525;28;20342;-37
2022/09/11 05:23:40;;;;;;;7.82;5.80;;;14.30;89.50;;;;;;5074291;28;20052;-39
2022/09/11 05:26:16;;;;;;;8.63;5.95;;;14.30;89.50;;;;;;5074460;28;20030;-39
2022/09/11 05:28:42;;;;;;;7.57;6.38;;;14.30;89.50;;;;;;5074020;28;20059;-37
2022/09/11 05:31:16;;;;;;;8.52;6.65;;;14.30;89.50;;;;;;5074466;28;20085;-38
2022/09/11 05:33:46;;;;;;;11.55;7.72;;;14.30;89.40;;;;;;5074034;28;20031;-40
2022/09/11 05:36:13;;;;;;;9.90;7.50;;;14.30;89.40;;;;;;5074033;28;20055;-37
2022/09/11 05:38:39;;;;;;;10.25;7.68;;;14.30;89.40;;;;;;5072937;28;20055;-39
2022/09/11 05:41:07;;;;;;;10.10;7.28;;;14.30;89.30;;;;;;5073829;28;20388;-39
2022/09/11 05:43:33;;;;;;;8.90;7.55;;;14.40;89.30;;;;;;5074133;28;20032;-40
2022/09/11 05:45:59;;;;;;;9.25;7.40;;;14.40;89.30;;;;;;5073634;28;20100;-41
2022/09/11 05:48:29;;;;;;;11.77;8.05;;;14.40;89.30;;;;;;5073780;28;20078;-36
2022/09/11 05:51:08;;;;;;;8.45;7.18;;;14.40;89.20;;;;;;5073643;28;20051;-39
2022/09/11 05:53:34;;;;;;;7.63;6.53;;;14.40;89.20;;;;;;5073636;28;20021;-37
2022/09/11 05:56:10;;;;;;;7.40;6.13;;;14.50;89.20;;;;;;5073721;28;20147;-41
2022/09/11 05:58:36;;;;;;;7.25;5.72;;;14.50;89.10;;;;;;5073564;28;20430;-37
2022/09/11 06:01:07;;;;;;;7.00;5.97;;;14.50;89.00;;;;;;5072245;28;20039;-42
2022/09/11 06:03:33;;;;;;;6.22;5.38;;;14.60;89.00;;;;;;5073608;28;20037;-39
2022/09/11 06:06:01;;;;;;;9.32;7.07;;;14.60;88.90;;;;;;5073428;28;20104;-40
2022/09/11 06:08:27;;;;;;;7.75;6.30;;;14.60;88.90;;;;;;5073415;28;20025;-39
2022/09/11 06:10:53;;;;;;;6.43;5.82;;;14.60;88.80;;;;;;5073365;28;20048;-42
2022/09/11 06:13:19;;;;;;;6.18;5.45;;;14.70;88.80;;;;;;5073276;28;20047;-40
2022/09/11 06:15:46;;;;;;;9.98;6.25;;;14.70;88.80;;;;;;5073595;28;20021;-40
2022/09/11 06:18:12;;;;;;;7.47;6.28;;;14.70;88.80;;;;;;5073221;28;20078;-41
2022/09/11 06:20:39;;;;;;;7.10;5.97;;;14.80;88.70;;;;;;5071883;28;20024;-40
2022/09/11 06:23:04;;;;;;;5.93;5.30;;;14.80;88.70;;;;;;5073627;28;20061;-41
2022/09/11 06:25:31;;;;;;;5.82;5.22;;;14.90;88.70;;;;;;5073480;28;20056;-40
2022/09/11 06:27:56;;;;;;;5.82;5.25;;;14.90;88.60;;;;;;5072855;28;20036;-41
2022/09/11 06:30:22;;;;;;;6.35;5.68;;;14.90;88.50;;;;;;5071549;28;20020;-42
2022/09/11 06:32:48;;;;;;;6.03;5.43;;;14.90;89.10;;;;;;5072863;28;20065;-41
2022/09/11 06:35:14;;;;;;;6.00;5.25;;;15.00;88.50;;;;;;5072917;28;20017;-39
2022/09/11 06:37:39;;;;;;;6.65;5.90;;;15.00;88.40;;;;;;5073050;28;20032;-39
2022/09/11 06:40:05;;;;;;;5.93;5.32;;;15.00;88.40;;;;;;5072934;28;20017;-42
2022/09/11 06:42:32;;;;;;;6.03;5.38;;;15.00;88.40;;;;;;5072650;28;20103;-42
2022/09/11 06:44:57;;;;;;;6.80;5.13;;;15.10;88.30;;;;;;5072262;28;20027;-40
2022/09/11 06:47:23;;;;;;;6.90;5.97;;;15.20;88.30;;;;;;5072269;28;20024;-41
2022/09/11 06:49:48;;;;;;;6.78;5.75;;;15.30;88.30;;;;;;5072360;28;20163;-42
2022/09/11 06:52:14;;;;;;;7.35;6.63;;;15.40;88.30;;;;;;5072688;28;20029;-40
2022/09/11 06:54:40;;;;;;;7.60;6.10;;;15.40;88.20;;;;;;5072228;28;20441;-40
2022/09/11 06:57:06;;;;;;;9.25;6.65;;;15.40;88.10;;;;;;5072433;28;20036;-41
2022/09/11 06:59:31;;;;;;;6.65;6.03;;;15.50;88.00;;;;;;5072395;28;20032;-40
2022/09/11 07:01:59;;;;;;;6.97;6.28;;;15.60;88.00;;;;;;5072419;28;20040;-41
2022/09/11 07:04:25;;;;;;;7.97;7.18;;;15.70;87.90;;;;;;5072256;28;20095;-36
2022/09/11 07:06:51;;;;;;;8.95;7.32;;;15.70;87.80;;;;;;5071427;28;20048;-39
2022/09/11 07:09:16;;;;;;;10.82;8.38;;;15.80;87.80;;;;;;5072484;28;20037;-41
2022/09/11 07:11:43;;;;;;;9.57;8.13;;;15.80;87.80;;;;;;5072396;28;20020;-38
2022/09/11 07:14:09;;;;;;;9.52;7.97;;;15.80;87.80;;;;;;5072459;28;20028;-38
2022/09/11 07:16:35;;;;;;;9.52;8.05;;;15.90;87.80;;;;;;5072367;28;20025;-37
2022/09/11 07:19:02;;;;;;;10.13;8.40;;;15.90;87.80;;;;;;5072358;28;20045;-36
2022/09/11 07:21:28;;;;;;;8.73;7.82;;;16.00;87.90;;;;;;5072069;28;20097;-39
2022/09/11 07:23:56;;;;;;;11.05;9.02;;;16.00;87.90;;;;;;5072331;28;20104;-41
2022/09/11 07:26:24;;;;;;;9.93;8.63;;;16.10;88.00;;;;;;5072587;28;20025;-43
2022/09/11 07:28:50;;;;;;;11.15;9.55;;;16.20;88.00;;;;;;5072039;28;20035;-36
2022/09/11 07:31:18;;;;;;;13.82;10.60;;;16.30;88.60;;;;;;5072870;28;20100;-40
2022/09/11 07:33:46;;;;;;;13.45;11.30;;;16.30;87.90;;;;;;5072523;28;20035;-41
2022/09/11 07:36:15;;;;;;;14.65;12.32;;;16.40;87.90;;;;;;5072411;28;20078;-40
2022/09/11 07:38:42;;;;;;;13.50;12.05;;;16.50;87.90;;;;;;5072405;28;20103;-41
2022/09/11 07:41:09;;;;;;;16.05;12.45;;;16.50;87.90;;;;;;5072165;28;20028;-40
2022/09/11 07:43:40;;;;;;;13.90;11.57;;;16.60;87.90;;;;;;5072218;28;20032;-41
2022/09/11 07:46:06;;;;;;;13.45;11.60;;;16.70;87.90;;;;;;5073685;28;20029;-43
2022/09/11 07:48:32;;;;;;;13.68;11.55;;;16.80;87.90;;;;;;5076024;28;20064;-36
2022/09/11 07:51:08;;;;;;;12.93;11.32;;;16.90;87.90;;;;;;5074730;28;20079;-38
2022/09/11 07:53:38;;;;;;;11.18;10.07;;;17.00;87.90;;;;;;5076023;28;20078;-40
2022/09/11 07:56:05;;;;;;;11.70;10.50;;;17.00;87.70;;;;;;5075900;28;20025;-37
2022/09/11 07:58:35;;;;;;;12.30;10.52;;;17.10;87.60;;;;;;5075974;28;20028;-39
2022/09/11 08:01:02;;;;;;;12.95;10.95;;;17.10;87.50;;;;;;5075787;28;20043;-42
2022/09/11 08:03:29;;;;;;;12.93;11.05;;;17.20;87.50;;;;;;5075694;28;20039;-38
2022/09/11 08:06:07;;;;;;;12.65;11.05;;;17.20;87.40;;;;;;5075995;28;20103;-39
2022/09/11 08:08:34;;;;;;;11.77;10.60;;;17.30;88.00;;;;;;5075893;28;20029;-37
2022/09/11 08:11:05;;;;;;;12.38;10.48;;;17.30;87.40;;;;;;5075887;28;20042;-40
2022/09/11 08:13:32;;;;;;;13.02;10.73;;;17.40;87.30;;;;;;5075585;28;20031;-39
2022/09/11 08:15:57;;;;;;;12.50;10.00;;;17.40;87.30;;;;;;5075407;28;20020;-42
2022/09/11 08:18:23;;;;;;;11.57;10.43;;;17.40;87.20;;;;;;5076002;28;20031;-40
2022/09/11 08:20:48;;;;;;;11.02;9.93;;;17.40;87.20;;;;;;5075863;28;20024;-41
2022/09/11 08:23:15;;;;;;;11.98;10.07;;;17.40;87.20;;;;;;5075519;28;20024;-39
2022/09/11 08:25:41;;;;;;;10.40;9.40;;;17.40;87.20;;;;;;5075703;28;20026;-40
2022/09/11 08:28:08;;;;;;;10.45;9.38;;;17.40;87.30;;;;;;5075244;28;20413;-40
2022/09/11 08:30:37;;;;;;;10.15;9.25;;;17.40;87.20;;;;;;5075779;28;20024;-39
2022/09/11 08:33:07;;;;;;;10.13;8.18;;;17.50;87.20;;;;;;5075939;28;20485;-41
2022/09/11 08:35:32;;;;;;;8.45;7.65;;;17.50;87.20;;;;;;5075287;28;20047;-37
2022/09/11 08:37:59;;;;;;;7.72;6.93;;;17.50;87.10;;;;;;5075657;28;20016;-40
2022/09/11 08:40:26;;;;;;;8.13;7.43;;;17.60;87.10;;;;;;5075422;28;20028;-38
2022/09/11 08:42:56;;;;;;;8.85;7.95;;;17.60;86.90;;;;;;5075174;28;20020;-41
2022/09/11 08:45:25;;;;;;;7.78;6.97;;;17.70;86.80;;;;;;5075239;28;20395;-37
2022/09/11 08:47:55;;;;;;;6.72;6.07;;;17.80;86.70;;;;;;5075094;28;20034;-39
2022/09/11 08:50:24;;;;;;;7.07;6.38;;;17.80;86.50;;;;;;5074070;28;20040;-37
2022/09/11 08:52:50;;;;;;;9.45;8.32;;;17.90;86.40;;;;;;5074076;28;20090;-42
2022/09/11 08:55:27;;;;;;;11.68;10.40;;;18.00;86.20;;;;;;5074063;28;20025;-43
2022/09/11 09:01:51;;;;;;;15.05;11.65;;;18.10;86.20;;;;;;5074023;28;20036;-40
2022/09/11 09:04:38;;;;;;;14.40;12.52;;;18.10;86.30;;;;;;5074166;28;20552;-38
2022/09/11 09:07:24;;;;;;;13.32;11.20;;;18.10;86.40;;;;;;5072420;28;20054;-43
2022/09/11 09:09:50;;;;;;;12.32;10.98;;;18.10;86.40;;;;;;5073979;28;20040;-42
2022/09/11 09:12:21;;;;;;;13.23;11.80;;;18.20;86.40;;;;;;5073375;28;20078;-39
2022/09/11 09:15:03;;;;;;;13.15;11.15;;;18.20;86.30;;;;;;5073363;28;20027;-40
2022/09/11 09:17:37;;;;;;;12.77;11.43;;;18.20;86.30;;;;;;5073098;28;20112;-36
2022/09/11 09:20:10;;;;;;;12.73;11.40;;;18.30;86.40;;;;;;5071752;28;20021;-39
2022/09/11 09:22:56;;;;;;;12.32;10.80;;;18.40;86.40;;;;;;5073197;28;20055;-40
2022/09/11 09:25:24;;;;;;;11.52;10.13;;;18.50;86.80;;;;;;5073191;28;20027;-42
2022/09/11 09:28:16;;;;;;;11.00;9.63;;;18.60;86.00;;;;;;5073832;28;20031;-42
2022/09/11 09:30:51;;;;;;;8.88;7.75;;;18.80;85.70;;;;;;5072658;28;20033;-41
2022/09/11 09:33:26;;;;;;;10.00;8.98;;;19.00;85.50;;;;;;5073258;28;20043;-35
2022/09/11 09:35:53;;;;;;;11.13;9.15;;;19.10;85.10;;;;;;5073029;28;20029;-41
2022/09/11 09:38:25;;;;;;;11.70;9.15;;;19.30;84.90;;;;;;5073062;28;20406;-41
2022/09/11 09:41:12;;;;;;;9.15;8.20;;;19.50;84.40;;;;;;5072888;28;20076;-39
2022/09/11 09:43:44;;;;;;;8.57;7.78;;;19.70;84.10;;;;;;5073227;28;20464;-37
2022/09/11 09:46:34;;;;;;;8.73;7.70;;;20.00;83.70;;;;;;5072825;28;20074;-40
2022/09/11 09:49:00;;;;;;;7.40;6.70;;;20.20;83.40;;;;;;5035061;28;1073311;-42
2022/09/11 09:51:27;;;;;;;7.07;6.43;;;20.30;82.80;;;;;;5073904;28;20441;-41
2022/09/11 09:54:00;;;;;;;7.25;6.38;;;20.40;82.50;;;;;;5073845;28;20052;-37
2022/09/11 09:56:29;;;;;;;6.03;5.47;;;20.40;82.20;;;;;;5073549;28;20032;-40
2022/09/11 09:59:17;;;;;;;7.07;6.30;;;20.50;82.10;;;;;;5073689;28;20036;-41
2022/09/11 10:01:46;;;;;;;7.03;6.38;;;20.50;81.70;;;;;;5073878;28;20032;-36
2022/09/11 10:04:25;;;;;;;8.23;7.13;;;20.50;81.50;;;;;;5074243;28;20328;-39
2022/09/11 10:07:05;;;;;;;6.60;6.00;;;20.50;81.20;;;;;;5073964;28;20032;-41
2022/09/11 10:09:32;;;;;;;6.15;5.55;;;20.50;81.30;;;;;;5072470;28;20105;-39
2022/09/11 10:12:01;;;;;;;6.40;5.40;;;20.40;81.00;;;;;;5073341;28;20031;-42
2022/09/11 10:14:31;;;;;;;5.80;5.30;;;20.30;80.90;;;;;;5073375;28;20074;-36
2022/09/11 10:16:59;;;;;;;5.05;4.50;;;20.30;80.80;;;;;;5073262;28;20025;-36
2022/09/11 10:19:41;;;;;;;5.45;4.72;;;20.30;80.70;;;;;;5073153;28;20043;-39
2022/09/11 10:22:28;;;;;;;5.30;4.25;;;20.40;80.50;;;;;;5073190;28;20032;-37
2022/09/11 10:25:18;;;;;;;4.65;4.00;;;20.40;80.30;;;;;;5073901;28;20472;-38
2022/09/11 10:28:10;;;;;;;4.72;3.90;;;20.40;80.10;;;;;;5071697;28;20051;-38
2022/09/11 10:30:41;;;;;;;4.55;4.15;;;20.40;79.90;;;;;;5071708;28;20365;-39
2022/09/11 10:33:25;;;;;;;6.32;5.72;;;20.40;79.80;;;;;;5073227;28;20025;-41
2022/09/11 10:35:57;;;;;;;6.07;5.50;;;20.40;79.70;;;;;;5073009;28;20020;-42
2022/09/11 10:38:30;;;;;;;6.97;6.00;;;20.40;79.80;;;;;;5073009;28;20043;-38
2022/09/11 10:41:17;;;;;;;8.05;7.25;;;20.40;79.80;;;;;;5072865;28;20078;-41
2022/09/11 10:44:02;;;;;;;7.78;6.97;;;20.50;79.40;;;;;;5072988;28;20162;-35
2022/09/11 10:46:33;;;;;;;10.20;8.68;;;20.70;79.30;;;;;;5072512;28;20107;-41
2022/09/11 10:49:04;;;;;;;9.40;8.40;;;20.90;78.90;;;;;;5072169;28;20028;-26
2022/09/11 10:51:32;;;;;;;10.23;8.82;;;21.00;78.80;;;;;;5072311;28;20064;-27
2022/09/11 10:54:07;;;;;;;12.85;10.27;;;21.00;78.60;;;;;;5072426;28;20067;-40
2022/09/11 10:56:38;;;;;;;11.85;10.65;;;21.10;78.50;;;;;;5072577;28;20033;-37
2022/09/11 10:59:10;;;;;;;11.45;10.25;;;21.10;78.30;;;;;;5072544;28;20048;-37
2022/09/11 11:01:36;;;;;;;12.23;10.48;;;21.10;78.40;;;;;;5072570;28;20033;-39
2022/09/11 11:04:01;;;;;;;11.50;10.30;;;21.20;78.10;;;;;;5072192;28;20050;-36
2022/09/11 11:06:57;;;;;;;11.27;9.07;;;21.30;78.00;;;;;;5072327;28;20031;-38
2022/09/11 11:09:31;;;;;;;8.18;7.38;;;21.40;77.80;;;;;;5072275;28;20089;-40
2022/09/11 11:12:17;;;;;;;9.82;8.57;;;21.50;77.70;;;;;;5072554;28;20498;-38
2022/09/11 11:14:56;;;;;;;10.20;8.65;;;21.60;77.30;;;;;;5072850;28;20056;-27
2022/09/11 11:17:36;;;;;;;10.77;9.38;;;21.50;77.30;;;;;;5072793;28;20356;-37
2022/09/11 11:20:34;;;;;;;8.07;7.13;;;21.50;77.30;;;;;;5072156;28;20081;-40
2022/09/11 11:23:17;;;;;;;7.10;6.40;;;21.60;77.20;;;;;;5072339;28;20407;-24
2022/09/11 11:26:20;;;;;;;10.70;8.82;;;21.70;77.00;;;;;;5072302;28;20469;-27
2022/09/11 11:29:06;;;;;;;12.13;8.55;;;21.90;76.60;;;;;;5070562;28;20521;-28
2022/09/11 11:32:05;;;;;;;10.18;8.23;;;21.90;76.50;;;;;;5071306;28;20044;-27
2022/09/11 11:35:00;;;;;;;8.77;7.97;;;21.90;76.30;;;;;;5072084;28;20109;-28
2022/09/11 11:37:34;;;;;;;7.53;6.80;;;21.80;76.70;;;;;;5072670;28;20066;-29
2022/09/11 11:40:31;;;;;;;8.07;7.28;;;21.80;76.20;;;;;;5072670;28;20036;-27
2022/09/11 11:43:03;;;;;;;7.85;6.80;;;21.80;76.00;;;;;;5072518;28;20025;-27
2022/09/11 11:45:36;;;;;;;7.30;6.20;;;21.90;76.10;;;;;;5072386;28;20035;-26
2022/09/11 11:48:22;;;;;;;7.53;6.82;;;22.00;75.40;;;;;;5072759;28;20082;-26
2022/09/11 11:51:03;;;;;;;7.00;6.30;;;22.10;75.20;;;;;;5072031;28;20040;-26
2022/09/11 11:53:34;;;;;;;6.22;5.63;;;22.10;74.80;;;;;;5072399;28;20032;-25
2022/09/11 11:56:13;;;;;;;7.32;6.63;;;22.10;74.90;;;;;;5072231;28;20036;-26
2022/09/11 11:59:00;;;;;;;6.93;6.03;;;22.10;74.80;;;;;;5072417;28;20502;-26
2022/09/11 12:01:48;;;;;;;6.65;5.53;;;22.30;74.70;;;;;;5072370;28;20416;-27
2022/09/11 12:04:43;;;;;;;6.60;5.78;;;22.40;74.20;;;;;;5072153;28;20089;-26
2022/09/11 12:07:18;;;;;;;6.82;6.22;;;22.50;74.50;;;;;;5072078;28;20052;-28
2022/09/11 12:09:48;;;;;;;5.97;5.38;;;22.50;73.60;;;;;;5072024;28;20024;-28
2022/09/11 12:12:16;;;;;;;5.70;5.20;;;22.50;73.60;;;;;;5072080;28;20460;-31
2022/09/11 12:14:51;;;;;;;5.72;5.18;;;22.50;73.50;;;;;;5072002;28;20028;-26
2022/09/11 12:17:28;;;;;;;6.15;5.55;;;22.60;73.20;;;;;;5072445;28;20036;-27
2022/09/11 12:20:11;;;;;;;6.00;5.18;;;22.60;72.80;;;;;;5071984;28;20094;-29
2022/09/11 12:22:48;;;;;;;6.15;4.93;;;22.60;72.50;;;;;;5071806;28;20441;-28
2022/09/11 12:25:20;;;;;;;6.10;5.50;;;22.70;72.40;;;;;;5071968;28;20031;-29
2022/09/11 12:27:49;;;;;;;6.00;5.40;;;22.70;72.20;;;;;;5071710;28;20029;-26
2022/09/11 12:30:15;;;;;;;4.38;3.97;;;22.80;72.10;;;;;;5072548;28;20443;-26
2022/09/11 12:32:50;;;;;;;5.00;4.60;;;22.90;71.90;;;;;;5074110;28;20143;-26
2022/09/11 12:35:44;;;;;;;5.60;4.68;;;23.00;71.60;;;;;;5075054;28;20062;-26
2022/09/11 12:38:39;;;;;;;5.80;4.57;;;23.10;71.10;;;;;;5075394;28;20040;-29
2022/09/11 12:41:21;;;;;;;5.45;3.80;;;23.20;71.50;;;;;;5075536;28;20040;-25
2022/09/11 12:43:48;;;;;;;3.90;3.50;;;23.30;70.80;;;;;;5075739;28;20112;-25
2022/09/11 12:46:19;;;;;;;4.20;3.80;;;23.30;70.70;;;;;;5074926;28;20391;-24
2022/09/11 12:48:56;;;;;;;3.83;3.47;;;23.40;70.30;;;;;;5075573;28;20077;-27
2022/09/11 12:51:29;;;;;;;4.90;4.00;;;23.50;70.00;;;;;;5075092;28;20448;-25
2022/09/11 12:53:59;;;;;;;5.32;4.65;;;23.60;69.80;;;;;;5074971;28;20479;-26
2022/09/11 12:56:29;;;;;;;4.45;4.05;;;23.60;69.30;;;;;;5073415;28;20047;-26
2022/09/11 12:58:59;;;;;;;4.88;4.38;;;23.70;69.20;;;;;;5074723;28;20041;-25
2022/09/11 13:01:29;;;;;;;4.55;4.15;;;23.70;69.00;;;;;;5074524;28;20036;-25
2022/09/11 13:04:10;;;;;;;5.50;3.95;;;23.80;68.80;;;;;;5074519;28;20055;-26
2022/09/11 13:06:47;;;;;;;4.15;3.25;;;23.90;68.60;;;;;;5074797;28;20032;-37